Tiempo atmosférico en la estación meteorológica de Algarrobo, Málaga (80 m.)



Fecha
DESCASC
Temp. máxima en grados centígrados (hora)
DESCASC
Temp. mínima en grados centígrados (hora)
DESCASC
Temp. media en grados centígrados
DESCASC
Racha de viento máxima en m/sg (hora)
DESCASC
Velocidad máxima media en intervalos de 10 minutos(hora)
DESCASC
Precipitaciones diarias en mm
DESCASC
Precipitaciones de 00:00 a 06:00 en mm
DESCASC
Precipitaciones de 06:00 a 12:00 en mm
DESCASC
Precipitaciones de 12:00 a 18:00 en mm
DESCASC
Precipitaciones de 18:00 a 24:00 en mm
DESCASC
18-01-2018 18.2 (12:50) 7.8 (01:30) 13 3.89 (11:20) 2.5 (11:30) 0 0 0 0 0
17-01-2018 17.6 (14:20) 6.2 (06:20) 11.9 4.44 (14:40) 3.06 (14:30) 0 0 0 0 0
16-01-2018 15.2 (14:00) 5.2 (09:10) 10.2 5.83 (14:20) 3.89 (14:20) 0 0 0 0 0
15-01-2018 15.3 (15:30) 4.3 (05:30) 9.8 6.11 (14:00) 3.61 (07:40) 0 0 0 0 0
14-01-2018 13.2 (11:30) 4.7 (00:00) 8.9 7.22 (00:30) 4.72 (02:00) 2.6 0 0 2.4 0.2
13-01-2018 14.8 (14:10) 6.6 (00:00) 10.7 8.33 (22:50) 5.28 (22:20) 0 0 0 0 0
12-01-2018 16.3 (12:50) 4.9 (00:00) 10.6 4.72 (05:40) 3.06 (14:20) 0 0 0 0 0
11-01-2018 16.6 (16:30) 9.9 (00:00) 13.3 16.11 (14:50) 9.44 (14:40) 0 0 0 0 0
10-01-2018 18.2 (12:40) 8.8 (00:00) 13.5 16.11 (11:40) 8.61 (11:40) 1 0.2 0.4 0.2 0.2
09-01-2018 12.9 (15:30) 4 (00:00) 8.4 4.44 (07:40) 2.22 (05:30) 2.2 0.2 0.2 0.2 1.6
08-01-2018 10.5 (14:20) 5.5 (00:00) 8 6.39 (12:20) 3.33 (12:20) 17.6 0.2 6.6 10.6 0.2
07-01-2018 12.4 (13:30) 4.1 (00:00) 8.2 7.5 (00:10) 4.72 (04:40) 0 0 0 0 0
06-01-2018 14.2 (05:40) 7 (00:00) 10.6 12.78 (13:20) 7.5 (13:40) 3.4 0 2.4 0.6 0.4
05-01-2018 20.4 (14:20) 8.4 (00:00) 14.4 10.56 (13:10) 6.94 (12:10) 0 0 0 0 0
04-01-2018 20.6 (14:50) 9.2 (07:20) 14.9 7.78 (22:40) 4.17 (22:40) 0 0 0 0 0
03-01-2018 21.8 (15:40) 9.7 (00:00) 15.7 4.44 (16:20) 2.78 (12:30) 0 0 0 0 0
02-01-2018 24.7 (15:30) 8.3 (00:00) 16.5 11.39 (15:10) 7.22 (16:00) 0 0 0 0 0
01-01-2018 19.7 (11:30) 7.3 (00:00) 13.5 6.67 (00:10) 3.61 (00:10) 0 0 0 0 0
31-12-2017 20.9 (14:40) 9.3 (00:00) 15.1 15 (16:20) 9.44 (16:20) 0 0 0 0 0
30-12-2017 19.5 (14:10) 9.8 (00:00) 14.7 3.89 (14:50) 2.22 (13:00) 0 0 0 0 0
29-12-2017 21.8 (14:00) 12.7 (00:00) 17.2 14.72 (13:50) 8.61 (15:00) 0 0 0 0 0
28-12-2017 20.2 (15:10) 13.7 (00:00) 17 16.67 (13:40) 10.28 (13:40) 0 0 0 0 0
27-12-2017 18.8 (11:40) 12.8 (00:00) 15.8 18.89 (15:00) 11.39 (14:50) 0 0 0 0 0
26-12-2017 18.1 (14:10) 9.4 (00:00) 13.8 14.44 (14:10) 8.89 (14:10) 0.2 0 0 0.2 0
25-12-2017 16.6 (14:20) 8.4 (00:00) 12.5 4.72 (08:20) 3.06 (08:20) 0.2 0 0 0 0.2
24-12-2017 17.9 (12:50) 8.4 (00:00) 13.1 9.17 (14:20) 4.72 (14:50) 0 0 0 0 0

Gráficas

Temp. máximas Temp. mínimas Temp. medias Precipitaciones Rachas de viento máximas Velocidades máximas media en intervalos de 10 minutos

Datos horarios

Fecha y hora oficial Temperatura (ºC) Velocidad del viento (km/h) Dirección del viento Racha (km/h) Dirección de racha Precipitación (mm) Presión (hPa) Tendencia (hPa) Humedad (%)
2018-01-22 23:00:00 10.5 3 Nordeste 5 Nordeste 0 -- -- 87
2018-01-22 22:00:00 11.1 0 Calma 4 Sur 0 -- -- 81
2018-01-22 21:00:00 12.4 0 Calma 9 Norte 0 -- -- 73
2018-01-22 20:00:00 13 6 Norte 9 Norte 0 -- -- 70
2018-01-22 19:00:00 15.9 0 Calma 5 Oeste 0 -- -- 63
2018-01-22 18:00:00 19.8 3 Oeste 7 Sudoeste 0 -- -- 47
2018-01-22 17:00:00 20.4 4 Sudoeste 9 Sudoeste 0 -- -- 49
2018-01-22 16:00:00 20.5 4 Sudoeste 9 Noroeste 0 -- -- 51
2018-01-22 15:00:00 19.5 4 Oeste 12 Sudoeste 0 -- -- 54
2018-01-22 14:00:00 19.6 5 Sur 17 Sudoeste 0 -- -- 55
2018-01-22 13:00:00 19 8 Sur 13 Sudoeste 0 -- -- 60
2018-01-22 12:00:00 19 5 Sur 10 Sur 0 -- -- 60
2018-01-22 11:00:00 19.7 3 Sur 13 Sudoeste 0 -- -- 56
2018-01-22 10:00:00 14.6 0 Calma 10 Norte 0 -- -- 69
2018-01-22 09:00:00 12 5 Nordeste 11 Norte 0 -- -- 67
2018-01-22 08:00:00 11.8 7 Norte 11 Norte 0 -- -- 69
2018-01-22 07:00:00 11.5 7 Norte 10 Norte 0 -- -- 71
2018-01-22 06:00:00 11.6 5 Norte 9 Norte 0 -- -- 72
2018-01-22 05:00:00 11.2 6 Norte 8 Norte 0 -- -- 74
2018-01-22 04:00:00 11.2 3 Nordeste 10 Norte 0 -- -- 74
2018-01-22 03:00:00 11 2 Nordeste 9 Norte 0 -- -- 74
2018-01-22 02:00:00 13.4 6 Sudeste 11 Sudeste 0 -- -- 63
2018-01-22 01:00:00 13.6 6 Norte 14 Norte 0 -- -- 62
2018-01-22 00:00:00 13.8 6 Norte 12 Noroeste 0 -- -- 61
2018-01-21 23:00:00 16.2 3 Sur 16 Oeste 0 -- -- 54
2018-01-21 22:00:00 18 3 Oeste 24 Nordeste 0 -- -- 48
2018-01-21 21:00:00 20.1 10 Nordeste 32 Nordeste 0 -- -- 41
2018-01-21 20:00:00 17 6 Sudoeste 19 Norte 0 -- -- 50
2018-01-21 19:00:00 16.1 5 Norte 9 Norte 0 -- -- 57
2018-01-21 18:00:00 20.2 0 Calma 9 Sudoeste 0 -- -- 58
2018-01-21 17:00:00 20.6 8 Sudoeste 12 Sudoeste 0 -- -- 50
2018-01-21 16:00:00 20.7 8 Sudoeste 18 Sudeste 0 -- -- 56
2018-01-21 15:00:00 21.8 10 Sudeste 20 Sudeste 0 -- -- 39
2018-01-21 14:00:00 21.1 10 Sudeste 18 Sudeste 0 -- -- 41
2018-01-21 13:00:00 20.2 10 Sudeste 17 Sudeste 0 -- -- 44
2018-01-21 12:00:00 20.1 9 Sudeste 16 Sudeste 0 -- -- 46
2018-01-21 11:00:00 19.5 8 Sudeste 15 Sudeste 0 -- -- 46
2018-01-21 10:00:00 14.3 5 Norte 12 Norte 0 -- -- 56
2018-01-21 09:00:00 10.2 5 Norte 15 Norte 0 -- -- 62
2018-01-21 08:00:00 10.6 5 Nordeste 13 Norte 0 -- -- 59
2018-01-21 07:00:00 10.3 4 Norte 11 Norte 0 -- -- 59
2018-01-21 06:00:00 10.3 0 Calma 7 Norte 0 -- -- 58
2018-01-21 05:00:00 10.7 5 Norte 10 Norte 0 -- -- 55
2018-01-21 04:00:00 11.3 3 Nordeste 10 Norte 0 -- -- 51
2018-01-21 03:00:00 12.1 2 Sur 13 Norte 0 -- -- 45
2018-01-21 02:00:00 13.1 6 Nordeste 14 Norte 0 -- -- 41
2018-01-21 01:00:00 12.3 7 Nordeste 15 Norte 0 -- -- 43
2018-01-21 00:00:00 12.7 3 Sudeste 19 Noroeste 0 -- -- 45
2018-01-20 23:00:00 13.5 6 Norte 17 Norte 0 -- -- 43
2018-01-20 22:00:00 15.9 4 Nordeste 31 Noroeste 0 -- -- 38
2018-01-20 21:00:00 13.6 8 Norte 13 Norte 0 -- -- 49
2018-01-20 20:00:00 13.1 6 Norte 12 Nordeste 0 -- -- 60
2018-01-20 19:00:00 13.7 4 Nordeste 8 Norte 0 -- -- 76
2018-01-20 18:00:00 17.7 2 Noroeste 9 Sur 0 -- -- 64
2018-01-20 17:00:00 18.6 4 Sudoeste 12 Sudoeste 0 -- -- 64
2018-01-20 16:00:00 18.6 5 Sudoeste 11 Sur 0 -- -- 56
2018-01-20 15:00:00 19.1 7 Sur 13 Sudoeste 0 -- -- 53
2018-01-20 14:00:00 18.3 5 Sudoeste 11 Sudoeste 0 -- -- 64
2018-01-20 13:00:00 18.7 7 Sudoeste 11 Sudoeste 0 -- -- 61
2018-01-20 12:00:00 18.2 8 Sur 12 Sur 0 -- -- 62
2018-01-20 11:00:00 16.6 2 Norte 8 Norte 0 -- -- 66
2018-01-20 10:00:00 11.7 5 Norte 8 Norte 0 -- -- 80
2018-01-20 09:00:00 8.8 5 Norte 10 Norte 0 -- -- 86
2018-01-20 08:00:00 7.8 4 Norte 10 Norte 0 -- -- 88
2018-01-20 07:00:00 7.3 4 Norte 9 Norte 0 -- -- 89
2018-01-20 06:00:00 7.2 3 Norte 10 Norte 0 -- -- 88
2018-01-20 05:00:00 7.6 4 Nordeste 10 Norte 0 -- -- 87
2018-01-20 04:00:00 7.8 2 Norte 8 Norte 0 -- -- 89
2018-01-20 03:00:00 8 3 Nordeste 10 Norte 0 -- -- 87
2018-01-20 02:00:00 9.1 3 Nordeste 14 Este 0 -- -- 87
2018-01-20 01:00:00 10.4 9 Este 15 Sudeste 0 -- -- 88
2018-01-20 00:00:00 9.2 3 Nordeste 9 Norte 0 -- -- 94
2018-01-19 23:00:00 9.8 4 Norte 10 Norte 0 -- -- 94
2018-01-19 22:00:00 10.2 6 Norte 12 Norte 0 -- -- 93
2018-01-19 21:00:00 10.8 4 Norte 10 Norte 0 -- -- 92
2018-01-19 20:00:00 11.6 3 Nordeste 9 Norte 0 -- -- 89
2018-01-19 19:00:00 13.4 0 Calma 7 Noroeste 0 -- -- 83
2018-01-19 18:00:00 16.2 0 Calma 10 Sudoeste 0 -- -- 73
2018-01-19 17:00:00 16.8 3 Oeste 13 Sudoeste 0 -- -- 69
2018-01-19 16:00:00 17.6 7 Sudoeste 14 Sudoeste 0 -- -- 61
2018-01-19 15:00:00 17.5 4 Oeste 10 Sudoeste 0 -- -- 60
2018-01-19 14:00:00 16.9 6 Sur 8 Sudoeste 0 -- -- 63
2018-01-19 13:00:00 15.7 4 Sudeste 10 Sur 0 -- -- 66
2018-01-19 12:00:00 15.6 3 Nordeste 9 Nordeste 0 -- -- 63
2018-01-19 11:00:00 13.8 3 Nordeste 8 Noroeste 0 -- -- 71
2018-01-19 10:00:00 12.4 3 Norte 8 Nordeste 0 -- -- 80
2018-01-19 09:00:00 11.1 3 Norte 12 Norte 0 -- -- 79
2018-01-19 08:00:00 11.5 3 Norte 12 Norte 0 -- -- 77
2018-01-19 07:00:00 11.7 6 Norte 12 Norte 0 -- -- 75
2018-01-19 06:00:00 10.8 3 Norte 8 Norte 0 -- -- 80
2018-01-19 05:00:00 11.1 2 Norte 8 Norte 0 -- -- 81
2018-01-19 04:00:00 11.3 0 Calma 12 Norte 0 -- -- 79
2018-01-19 03:00:00 11.6 10 Norte 19 Norte 0 -- -- 76
2018-01-19 02:00:00 11.9 4 Noroeste 15 Norte 0 -- -- 78
2018-01-19 01:00:00 11.5 4 Norte 9 Norte 0 -- -- 79
2018-01-19 00:00:00 11.6 3 Norte 8 Norte 0 -- -- 78
2018-01-18 23:00:00 11.5 3 Norte 7 Norte 0 -- -- 77
2018-01-18 22:00:00 11.5 4 Nordeste 9 Norte 0 -- -- 78
2018-01-18 21:00:00 11.6 4 Norte 7 Norte 0 -- -- 77
2018-01-18 20:00:00 11.8 4 Norte 7 Norte 0 -- -- 76
2018-01-18 19:00:00 12.3 4 Norte 8 Norte 0 -- -- 73
2018-01-18 18:00:00 13.7 2 Nordeste 5 Norte 0 -- -- 70
2018-01-18 17:00:00 15.5 0 Calma 4 Sur 0 -- -- 64
2018-01-18 16:00:00 15.9 2 Sur 8 Oeste 0 -- -- 57
2018-01-18 15:00:00 16.2 4 Sudoeste 10 Sudoeste 0 -- -- 61
2018-01-18 14:00:00 17.6 2 Sudoeste 9 Sudoeste 0 -- -- 51
2018-01-18 13:00:00 18.2 4 Sudoeste 12 Noroeste 0 -- -- 50
2018-01-18 12:00:00 16.2 7 Noroeste 14 Noroeste 0 -- -- 61
2018-01-18 11:00:00 15.7 2 Nordeste 11 Noroeste 0 -- -- 66
2018-01-18 10:00:00 12 8 Norte 12 Norte 0 -- -- 77
2018-01-18 09:00:00 9.1 8 Norte 12 Norte 0 -- -- 83
2018-01-18 08:00:00 8.5 7 Norte 12 Norte 0 -- -- 82
2018-01-18 07:00:00 8.5 6 Norte 12 Norte 0 -- -- 82
2018-01-18 06:00:00 8.8 8 Norte 10 Norte 0 -- -- 80
2018-01-18 05:00:00 9.2 8 Norte 10 Norte 0 -- -- 82
2018-01-18 04:00:00 9.1 5 Norte 9 Norte 0 -- -- 80
2018-01-18 03:00:00 8.6 6 Norte 10 Norte 0 -- -- 84
2018-01-18 02:00:00 8.1 4 Nordeste 9 Norte 0 -- -- 92
2018-01-18 01:00:00 8.4 4 Norte 11 Norte 0 -- -- 94
2018-01-18 00:00:00 8.3 3 Nordeste 8 Nordeste 0 -- -- 95
2018-01-17 23:00:00 8.4 3 Nordeste 7 Nordeste 0 -- -- 94
2018-01-17 22:00:00 8.9 3 Este 4 Este 0 -- -- 92
2018-01-17 21:00:00 10 4 Nordeste 9 Este 0 -- -- 91
2018-01-17 20:00:00 10.4 3 Nordeste 5 Norte 0 -- -- 88
2018-01-17 19:00:00 12.9 0 Calma 10 Nordeste 0 -- -- 79
2018-01-17 18:00:00 16.3 3 Sur 8 Sur 0 -- -- 75
2018-01-17 17:00:00 16.7 6 Sur 13 Sur 0 -- -- 75
2018-01-17 16:00:00 17 10 Sur 14 Sur 0 -- -- 71
2018-01-17 15:00:00 16.8 10 Sur 16 Sur 0 -- -- 64
2018-01-17 14:00:00 17.3 6 Sudoeste 12 Sur 0 -- -- 55
2018-01-17 13:00:00 16.6 6 Sur 12 Sur 0 -- -- 59
2018-01-17 12:00:00 15.7 5 Sudoeste 12 Sudoeste 0 -- -- 61
2018-01-17 11:00:00 13.8 4 Sur 8 Sur 0 -- -- 73
2018-01-17 10:00:00 9 2 Norte 9 Norte 0 -- -- 93
2018-01-17 09:00:00 6.2 3 Nordeste 8 Norte 0 -- -- 94
2018-01-17 08:00:00 6.2 3 Norte 8 Norte 0 -- -- 92
2018-01-17 07:00:00 6.5 4 Norte 10 Norte 0 -- -- 93
2018-01-17 06:00:00 6.3 4 Norte 9 Norte 0 -- -- 93
2018-01-17 05:00:00 7.3 4 Norte 8 Norte 0 -- -- 95
2018-01-17 04:00:00 7.7 5 Nordeste 11 Nordeste 0 -- -- 96
2018-01-17 03:00:00 7.5 5 Norte 9 Norte 0 -- -- 95
2018-01-17 02:00:00 7.4 3 Nordeste 9 Norte 0 -- -- 93
2018-01-17 01:00:00 7.8 5 Norte 10 Norte 0 -- -- 93
2018-01-17 00:00:00 8.4 3 Norte 9 Norte 0 -- -- 91
2018-01-16 23:00:00 9.2 8 Norte 14 Norte 0 -- -- 93
2018-01-16 22:00:00 8.9 6 Norte 8 Norte 0 -- -- 93
2018-01-16 21:00:00 9.1 4 Norte 8 Norte 0 -- -- 91
2018-01-16 20:00:00 9.7 4 Norte 8 Norte 0 -- -- 89
2018-01-16 19:00:00 11.5 2 Norte 6 Sudoeste 0 -- -- 81
2018-01-16 18:00:00 14.1 4 Sudoeste 16 Sudoeste 0 -- -- 74
2018-01-16 17:00:00 14.8 9 Sudoeste 17 Sudoeste 0 -- -- 73
2018-01-16 16:00:00 15.1 10 Sudoeste 18 Sudoeste 0 -- -- 72
2018-01-16 15:00:00 14.6 11 Sudoeste 21 Oeste 0 -- -- 70
2018-01-16 14:00:00 15.2 11 Sudoeste 18 Sudoeste 0 -- -- 65
2018-01-16 13:00:00 14.7 7 Sudoeste 15 Sudoeste 0 -- -- 61
2018-01-16 12:00:00 14.9 3 Sudoeste 6 Oeste 0 -- -- 55
2018-01-16 11:00:00 12.9 4 Sur 7 Sur 0 -- -- 62
2018-01-16 10:00:00 8.1 0 Calma 4 Nordeste 0 -- -- 89
2018-01-16 09:00:00 5.3 0 Calma 10 Norte 0 -- -- 84
2018-01-16 08:00:00 6.1 7 Norte 14 Norte 0 -- -- 78
2018-01-16 07:00:00 6.3 8 Norte 16 Norte 0 -- -- 80
2018-01-16 06:00:00 6.5 8 Norte 13 Norte 0 -- -- 81
2018-01-16 05:00:00 6.5 9 Norte 13 Noroeste 0 -- -- 82
2018-01-16 04:00:00 7 7 Norte 14 Norte 0 -- -- 81
2018-01-16 03:00:00 7.1 6 Norte 13 Norte 0 -- -- 85
2018-01-16 02:00:00 7 6 Norte 10 Nordeste 0 -- -- 87
2018-01-16 01:00:00 7.3 6 Norte 10 Nordeste 0 -- -- 87
2018-01-16 00:00:00 7.5 5 Norte 11 Norte 0 -- -- 85
2018-01-15 23:00:00 7.3 7 Norte 10 Norte 0 -- -- 87
2018-01-15 22:00:00 7.3 6 Norte 9 Norte 0 -- -- 88
2018-01-15 21:00:00 7.6 5 Norte 9 Norte 0 -- -- 86
2018-01-15 20:00:00 8.3 5 Norte 7 Norte 0 -- -- 83
2018-01-15 19:00:00 10.5 3 Norte 6 Sur 0 -- -- 74
2018-01-15 18:00:00 14 5 Sur 13 Sur 0 -- -- 62
2018-01-15 17:00:00 14.6 7 Sur 15 Sur 0 -- -- 59
2018-01-15 16:00:00 15.1 10 Sur 17 Sudeste 0 -- -- 61
2018-01-15 15:00:00 15.1 9 Sur 19 Sudeste 0 -- -- 59
2018-01-15 14:00:00 14.9 13 Sur 22 Sur 0 -- -- 57
2018-01-15 13:00:00 14.4 8 Sudeste 18 Sudeste 0 -- -- 59
2018-01-15 12:00:00 14.1 8 Sudeste 16 Sudeste 0 -- -- 61
2018-01-15 11:00:00 10.4 3 Norte 12 Norte 0 -- -- 75
2018-01-15 10:00:00 8.8 8 Norte 18 Norte 0 -- -- 71
2018-01-15 09:00:00 6.2 11 Norte 19 Norte 0 -- -- 75
2018-01-15 08:00:00 5.6 7 Norte 19 Norte 0 -- -- 78
2018-01-15 07:00:00 5.2 6 Norte 17 Norte 0 -- -- 81
2018-01-15 06:00:00 5 6 Norte 12 Norte 0 -- -- 84
2018-01-15 05:00:00 5.1 3 Norte 13 Norte 0 -- -- 85
2018-01-15 04:00:00 5.2 4 Norte 10 Norte 0 -- -- 86
2018-01-15 03:00:00 4.6 4 Nordeste 10 Norte 0 -- -- 90
2018-01-15 02:00:00 4.6 3 Nordeste 9 Nordeste 0 -- -- 90
2018-01-15 01:00:00 4.5 4 Norte 13 Norte 0 -- -- 90
2018-01-15 00:00:00 5 5 Norte 9 Norte 0 -- -- 92
2018-01-14 23:00:00 5.1 4 Norte 9 Este 0 -- -- 92
2018-01-14 22:00:00 5.3 2 Norte 7 Este 0 -- -- 92
2018-01-14 21:00:00 6.2 3 Norte 13 Norte 0 -- -- 90
2018-01-14 20:00:00 7.5 9 Noroeste 17 Noroeste 0.2 -- -- 90
2018-01-14 19:00:00 8.5 4 Norte 8 Noroeste 0 -- -- 88
2018-01-14 18:00:00 10.8 4 Noroeste 10 Noroeste 0.2 -- -- 88
2018-01-14 17:00:00 11 0 Calma 6 Noroeste 0.2 -- -- 85
2018-01-14 16:00:00 11.1 0 Calma 7 Nordeste 0.4 -- -- 88
2018-01-14 15:00:00 11 2 Norte 6 Noroeste 0.4 -- -- 90
2018-01-14 14:00:00 10.9 3 Noroeste 15 Sudoeste 0.8 -- -- 85
2018-01-14 13:00:00 12.5 0 Calma 6 Oeste 0.4 -- -- 84
2018-01-14 12:00:00 12.4 5 Oeste 14 Noroeste 0 -- -- 74
2018-01-14 11:00:00 12.4 5 Noroeste 16 Norte 0 -- -- 67
2018-01-14 10:00:00 9.8 5 Norte 12 Norte 0 -- -- 81
2018-01-14 09:00:00 7 3 Nordeste 8 Norte 0 -- -- 90
2018-01-14 08:00:00 6.1 4 Norte 8 Norte 0 -- -- 86
2018-01-14 07:00:00 8.5 6 Norte 15 Noroeste 0 -- -- 76
2018-01-14 06:00:00 9.2 7 Noroeste 15 Noroeste 0 -- -- 74
2018-01-14 05:00:00 9.4 7 Oeste 15 Noroeste 0 -- -- 73
2018-01-14 04:00:00 10 9 Noroeste 24 Noroeste 0 -- -- 69
2018-01-14 03:00:00 10.4 15 Noroeste 25 Noroeste 0 -- -- 69
2018-01-14 02:00:00 9.9 17 Noroeste 23 Noroeste 0 -- -- 73
2018-01-14 01:00:00 10.2 15 Noroeste 26 Noroeste 0 -- -- 71
2018-01-14 00:00:00 11.4 16 Noroeste 29 Noroeste 0 -- -- 63
2018-01-13 23:00:00 11.8 17 Oeste 30 Oeste 0 -- -- 62
2018-01-13 22:00:00 10.6 17 Noroeste 25 Noroeste 0 -- -- 70
2018-01-13 21:00:00 7.6 5 Noroeste 14 Oeste 0 -- -- 91
2018-01-13 20:00:00 8.7 3 Nordeste 8 Norte 0 -- -- 88
2018-01-13 19:00:00 10 4 Norte 8 Norte 0 -- -- 85
2018-01-13 18:00:00 12.1 0 Calma 8 Sudeste 0 -- -- 80
2018-01-13 17:00:00 12.2 8 Noroeste 17 Oeste 0 -- -- 77
2018-01-13 16:00:00 12.7 10 Oeste 17 Sudoeste 0 -- -- 75
2018-01-13 15:00:00 13 8 Sudoeste 17 Oeste 0 -- -- 72
2018-01-13 14:00:00 14.6 5 Sudoeste 11 Sudoeste 0 -- -- 64
2018-01-13 13:00:00 12.9 4 Oeste 10 Oeste 0 -- -- 71
2018-01-13 12:00:00 13.3 2 Oeste 7 Oeste 0 -- -- 69
2018-01-13 11:00:00 13.3 0 Calma 4 Norte 0 -- -- 68
2018-01-13 10:00:00 8.3 2 Norte 8 Norte 0 -- -- 87
2018-01-13 09:00:00 7.3 4 Norte 8 Norte 0 -- -- 85
2018-01-13 08:00:00 7.4 4 Norte 10 Norte 0 -- -- 83
2018-01-13 07:00:00 7.2 4 Norte 8 Norte 0 -- -- 84
2018-01-13 06:00:00 6.8 4 Nordeste 8 Norte 0 -- -- 85
2018-01-13 05:00:00 7 3 Norte 10 Norte 0 -- -- 80
2018-01-13 04:00:00 6.8 6 Norte 9 Norte 0 -- -- 83
2018-01-13 03:00:00 6.8 5 Norte 10 Norte 0 -- -- 84
2018-01-13 02:00:00 7 5 Norte 9 Nordeste 0 -- -- 82
2018-01-13 01:00:00 7.1 4 Nordeste 10 Norte 0 -- -- 83
2018-01-13 00:00:00 6.6 4 Norte 7 Norte 0 -- -- 84
2018-01-12 23:00:00 7.6 2 Nordeste 8 Norte 0 -- -- 78
2018-01-12 22:00:00 8.3 6 Norte 12 Norte 0 -- -- 77
2018-01-12 21:00:00 8.1 5 Norte 9 Norte 0 -- -- 79
2018-01-12 20:00:00 8.5 4 Norte 7 Norte 0 -- -- 77
2018-01-12 19:00:00 9.7 2 Nordeste 5 Norte 0 -- -- 73
2018-01-12 18:00:00 13.6 2 Sudoeste 10 Sur 0 -- -- 57
2018-01-12 17:00:00 14.5 4 Sur 12 Sudoeste 0 -- -- 52
2018-01-12 16:00:00 15.1 6 Sur 13 Sudoeste 0 -- -- 52
2018-01-12 15:00:00 15.2 7 Sur 16 Sur 0 -- -- 54
2018-01-12 14:00:00 15.4 10 Sur 14 Sudoeste 0 -- -- 51
2018-01-12 13:00:00 16.3 6 Sur 14 Sur 0 -- -- 41
2018-01-12 12:00:00 16 4 Sur 10 Sudoeste 0 -- -- 43
2018-01-12 11:00:00 13.7 3 Norte 8 Norte 0 -- -- 54
2018-01-12 10:00:00 9.5 4 Norte 8 Norte 0 -- -- 69
2018-01-12 09:00:00 5.3 4 Nordeste 7 Nordeste 0 -- -- 71
2018-01-12 08:00:00 6 3 Este 13 Sudeste 0 -- -- 65
2018-01-12 07:00:00 6.8 3 Sudoeste 14 Noroeste 0 -- -- 64
2018-01-12 06:00:00 8.5 4 Nordeste 17 Noroeste 0 -- -- 57
2018-01-12 05:00:00 7.1 5 Norte 17 Noroeste 0 -- -- 66
2018-01-12 04:00:00 5.9 0 Calma 11 Norte 0 -- -- 76
2018-01-12 03:00:00 7.8 3 Norte 10 Sudeste 0 -- -- 68
2018-01-12 02:00:00 7.5 5 Norte 10 Norte 0 -- -- 71
2018-01-12 01:00:00 8.2 5 Nordeste 10 Norte 0 -- -- 66
2018-01-12 00:00:00 11.5 3 Norte 25 Noroeste 0 -- -- 55
2018-01-11 23:00:00 11.8 6 Noroeste 35 Noroeste 0 -- -- 54
2018-01-11 22:00:00 13.7 30 Noroeste 49 Noroeste 0 -- -- 49
2018-01-11 21:00:00 13.9 26 Noroeste 53 Noroeste 0 -- -- 50
2018-01-11 20:00:00 14.1 17 Noroeste 29 Noroeste 0 -- -- 52
2018-01-11 19:00:00 14.2 12 Noroeste 28 Noroeste 0 -- -- 51
2018-01-11 18:00:00 15.1 14 Noroeste 46 Norte 0 -- -- 52
2018-01-11 17:00:00 15.3 31 Noroeste 48 Noroeste 0 -- -- 50
2018-01-11 16:00:00 16.1 31 Noroeste 53 Oeste 0 -- -- 47
2018-01-11 15:00:00 16.1 33 Noroeste 58 Noroeste 0 -- -- 47
2018-01-11 14:00:00 16 30 Noroeste 52 Noroeste 0 -- -- 49
2018-01-11 13:00:00 15.3 32 Noroeste 53 Noroeste 0 -- -- 53
2018-01-11 12:00:00 15.1 26 Noroeste 44 Norte 0 -- -- 52
2018-01-11 11:00:00 14.3 26 Noroeste 47 Noroeste 0 -- -- 51
2018-01-11 10:00:00 12.3 21 Oeste 36 Oeste 0 -- -- 56
2018-01-11 09:00:00 10.8 11 Noroeste 30 Oeste 0 -- -- 57
2018-01-11 08:00:00 11.1 15 Noroeste 37 Noroeste 0 -- -- 54
2018-01-11 07:00:00 10.8 18 Noroeste 35 Noroeste 0 -- -- 55
2018-01-11 06:00:00 11.1 16 Noroeste 33 Noroeste 0 -- -- 59
2018-01-11 05:00:00 12.1 23 Noroeste 39 Noroeste 0 -- -- 58
2018-01-11 04:00:00 12.2 25 Noroeste 43 Noroeste 0 -- -- 61
2018-01-11 03:00:00 12.5 18 Noroeste 33 Noroeste 0 -- -- 61
2018-01-11 02:00:00 13.1 19 Noroeste 49 Noroeste 0 -- -- 57
2018-01-11 01:00:00 13.8 27 Noroeste 38 Noroeste 0 -- -- 59
2018-01-11 00:00:00 15.1 26 Noroeste 44 Noroeste 0.2 -- -- 59
2018-01-10 23:00:00 14.4 11 Noroeste 17 Noroeste 0 -- -- 68
2018-01-10 22:00:00 14.6 13 Norte 21 Noroeste 0 -- -- 66
2018-01-10 21:00:00 15.1 14 Norte 26 Norte 0 -- -- 65
2018-01-10 20:00:00 14.6 16 Norte 27 Norte 0 -- -- 66
2018-01-10 19:00:00 15.2 18 Norte 30 Noroeste 0 -- -- 61
2018-01-10 18:00:00 16.4 18 Noroeste 45 Noroeste 0 -- -- 57
2018-01-10 17:00:00 17.1 27 Noroeste 47 Noroeste 0 -- -- 54
2018-01-10 16:00:00 17.2 28 Noroeste 43 Noroeste 0 -- -- 53
2018-01-10 15:00:00 18.1 26 Noroeste 40 Noroeste 0.2 -- -- 54
2018-01-10 14:00:00 18 25 Noroeste 46 Norte 0 -- -- 53
2018-01-10 13:00:00 18 30 Noroeste 50 Noroeste 0 -- -- 51
2018-01-10 12:00:00 17.4 30 Noroeste 58 Noroeste 0.2 -- -- 51
2018-01-10 11:00:00 15.7 26 Noroeste 42 Noroeste 0 -- -- 63
2018-01-10 10:00:00 12.1 18 Noroeste 28 Noroeste 0 -- -- 90
2018-01-10 09:00:00 8.9 2 Noroeste 10 Noroeste 0 -- -- 96
2018-01-10 08:00:00 9.5 6 Norte 9 Noroeste 0.2 -- -- 97
2018-01-10 07:00:00 9.2 3 Norte 5 Nordeste 0 -- -- 96
2018-01-10 06:00:00 11 0 Calma 10 Noroeste 0 -- -- 96
2018-01-10 05:00:00 11 4 Norte 7 Norte 0 -- -- 96
2018-01-10 04:00:00 10.9 2 Norte 5 Norte 0.2 -- -- 96
2018-01-10 03:00:00 10.8 3 Norte 4 Nordeste 0 -- -- 95
2018-01-10 02:00:00 10.9 0 Calma 3 Norte 0 -- -- 94
2018-01-10 01:00:00 11 0 Calma 6 Nordeste 0 -- -- 94
2018-01-10 00:00:00 11 3 Nordeste 10 Nordeste 0.2 -- -- 93
2018-01-09 23:00:00 10.7 5 Norte 14 Noroeste 0 -- -- 95
2018-01-09 22:00:00 10.2 2 Noroeste 13 Nordeste 1 -- -- 93
2018-01-09 21:00:00 9.8 2 Noroeste 8 Norte 0.4 -- -- 90
2018-01-09 20:00:00 10.5 3 Norte 6 Norte 0 -- -- 85
2018-01-09 19:00:00 11 0 Calma 6 Sudoeste 0 -- -- 78
2018-01-09 18:00:00 11.9 2 Norte 5 Nordeste 0 -- -- 72
2018-01-09 17:00:00 12.4 2 Noroeste 10 Noroeste 0 -- -- 66
2018-01-09 16:00:00 12.8 5 Noroeste 8 Noroeste 0 -- -- 64
2018-01-09 15:00:00 12.6 5 Sudoeste 8 Sudoeste 0 -- -- 67
2018-01-09 14:00:00 12.1 0 Calma 11 Noroeste 0.2 -- -- 72
2018-01-09 13:00:00 11.9 5 Noroeste 10 Oeste 0 -- -- 67
2018-01-09 12:00:00 11.7 3 Sur 5 Sur 0 -- -- 68
2018-01-09 11:00:00 11.2 0 Calma 5 Oeste 0 -- -- 73
2018-01-09 10:00:00 8.4 2 Nordeste 10 Norte 0 -- -- 87
2018-01-09 09:00:00 4.7 5 Norte 12 Nordeste 0.2 -- -- 88
2018-01-09 08:00:00 5.6 6 Nordeste 16 Norte 0 -- -- 87
2018-01-09 07:00:00 4 4 Nordeste 9 Norte 0 -- -- 92
2018-01-09 06:00:00 5.1 5 Nordeste 13 Norte 0 -- -- 88
2018-01-09 05:00:00 4.6 6 Norte 10 Norte 0 -- -- 90
2018-01-09 04:00:00 5.4 6 Nordeste 13 Nordeste 0 -- -- 89
2018-01-09 03:00:00 5.6 6 Norte 10 Norte 0 -- -- 88
2018-01-09 02:00:00 5.7 6 Norte 12 Nordeste 0.2 -- -- 89
2018-01-09 01:00:00 5.8 6 Norte 14 Nordeste 0 -- -- 91
2018-01-09 00:00:00 5.5 4 Norte 17 Norte 0 -- -- 91
2018-01-08 23:00:00 5.8 7 Norte 13 Norte 0 -- -- 93
2018-01-08 22:00:00 6.2 6 Norte 12 Norte 0 -- -- 93
2018-01-08 21:00:00 6.8 6 Norte 10 Norte 0.2 -- -- 93
2018-01-08 20:00:00 7.8 4 Norte 10 Nordeste 0 -- -- 91
2018-01-08 19:00:00 8.5 3 Nordeste 5 Norte 0 -- -- 92
2018-01-08 18:00:00 9.3 0 Calma 9 Este 0.2 -- -- 89
2018-01-08 17:00:00 9 3 Nordeste 10 Este 0.2 -- -- 90
2018-01-08 16:00:00 8.6 5 Nordeste 15 Nordeste 1.8 -- -- 91
2018-01-08 15:00:00 9.3 6 Sudeste 17 Sudeste 0.2 -- -- 81
2018-01-08 14:00:00 9.3 4 Noroeste 10 Norte 1.8 -- -- 93
2018-01-08 13:00:00 7.1 5 Nordeste 23 Sudoeste 6.4 -- -- 94
2018-01-08 12:00:00 7.9 0 Calma 17 Oeste 3 -- -- 93
2018-01-08 11:00:00 7.7 8 Noroeste 15 Noroeste 0.4 -- -- 91
2018-01-08 10:00:00 7.4 4 Sudoeste 19 Norte 0.4 -- -- 91
2018-01-08 09:00:00 7 7 Norte 16 Este 1.4 -- -- 92
2018-01-08 08:00:00 7.2 5 Nordeste 12 Nordeste 1.4 -- -- 92
2018-01-08 07:00:00 7.2 0 Calma 4 Nordeste 0 -- -- 88
2018-01-08 06:00:00 7.2 3 Nordeste 8 Norte 0.2 -- -- 82
2018-01-08 05:00:00 6.6 3 Norte 6 Norte 0 -- -- 79
2018-01-08 04:00:00 6.8 0 Calma 8 Norte 0 -- -- 78
2018-01-08 03:00:00 6.8 4 Norte 6 Norte 0 -- -- 79
2018-01-08 02:00:00 7.4 3 Norte 9 Noroeste 0 -- -- 77
2018-01-08 01:00:00 8.1 3 Norte 10 Nordeste 0 -- -- 71
2018-01-08 00:00:00 8.1 3 Nordeste 15 Norte 0 -- -- 71
2018-01-07 23:00:00 7.6 6 Norte 14 Noroeste 0 -- -- 76
2018-01-07 22:00:00 7.8 4 Noroeste 10 Noroeste 0 -- -- 75
2018-01-07 21:00:00 7.5 3 Norte 9 Noroeste 0 -- -- 78
2018-01-07 20:00:00 7.6 4 Norte 12 Norte 0 -- -- 75
2018-01-07 19:00:00 8 5 Norte 24 Norte 0 -- -- 77
2018-01-07 18:00:00 9.5 8 Noroeste 25 Sudoeste 0 -- -- 67
2018-01-07 17:00:00 11 6 Sudoeste 11 Sudoeste 0 -- -- 56
2018-01-07 16:00:00 11.4 0 Calma 12 Sudoeste 0 -- -- 51
2018-01-07 15:00:00 11.2 5 Nordeste 17 Norte 0 -- -- 51
2018-01-07 14:00:00 12.1 9 Noroeste 22 Norte 0 -- -- 49
2018-01-07 13:00:00 12.1 9 Sudoeste 18 Oeste 0 -- -- 48
2018-01-07 12:00:00 11.2 8 Noroeste 16 Noroeste 0 -- -- 47
2018-01-07 11:00:00 10.1 9 Noroeste 18 Noroeste 0 -- -- 53
2018-01-07 10:00:00 7.1 3 Norte 13 Norte 0 -- -- 67
2018-01-07 09:00:00 4.4 7 Norte 13 Nordeste 0 -- -- 74
2018-01-07 08:00:00 5.2 4 Norte 12 Noroeste 0 -- -- 69
2018-01-07 07:00:00 6.9 6 Noroeste 21 Oeste 0 -- -- 62
2018-01-07 06:00:00 6.7 12 Noroeste 18 Noroeste 0 -- -- 64
2018-01-07 05:00:00 7.6 16 Noroeste 25 Noroeste 0 -- -- 58
2018-01-07 04:00:00 5.5 9 Norte 17 Norte 0 -- -- 72
2018-01-07 03:00:00 6.1 8 Norte 19 Sudoeste 0 -- -- 68
2018-01-07 02:00:00 6.7 10 Noroeste 19 Norte 0 -- -- 65
2018-01-07 01:00:00 6.8 15 Norte 27 Noroeste 0 -- -- 67
2018-01-07 00:00:00 8.9 18 Noroeste 27 Noroeste 0 -- -- 56
2018-01-06 23:00:00 9 17 Noroeste 29 Noroeste 0.2 -- -- 60
2018-01-06 22:00:00 7 12 Norte 21 Noroeste 0 -- -- 74
2018-01-06 21:00:00 8 7 Norte 12 Noroeste 0 -- -- 68
2018-01-06 20:00:00 9.2 9 Noroeste 21 Noroeste 0 -- -- 65
2018-01-06 19:00:00 9.9 10 Noroeste 27 Noroeste 0.2 -- -- 64
2018-01-06 18:00:00 11.6 15 Noroeste 36 Noroeste 0 -- -- 58
2018-01-06 17:00:00 13 21 Noroeste 41 Noroeste 0 -- -- 56
2018-01-06 16:00:00 12.9 19 Noroeste 38 Noroeste 0.2 -- -- 58
2018-01-06 15:00:00 12.5 21 Noroeste 38 Noroeste 0 -- -- 61
2018-01-06 14:00:00 12.7 23 Noroeste 46 Noroeste 0.2 -- -- 62
2018-01-06 13:00:00 10.2 15 Noroeste 33 Noroeste 0.2 -- -- 78
2018-01-06 12:00:00 9.6 17 Noroeste 32 Norte 0 -- -- 81
2018-01-06 11:00:00 9.5 22 Norte 35 Norte 0.4 -- -- 85
2018-01-06 10:00:00 11.7 11 Este 22 Este 0.2 -- -- 87
2018-01-06 09:00:00 10.5 4 Nordeste 10 Nordeste 0.2 -- -- 93
2018-01-06 08:00:00 10.6 4 Nordeste 12 Nordeste 0.2 -- -- 92
2018-01-06 07:00:00 10.8 4 Nordeste 27 Sudoeste 1.4 -- -- 90
2018-01-06 06:00:00 14.2 8 Sur 23 Oeste 0 -- -- 74
2018-01-06 05:00:00 13.5 2 Este 6 Este 0 -- -- 75
2018-01-06 04:00:00 13.4 3 Nordeste 9 Norte 0 -- -- 75
2018-01-06 03:00:00 13.6 3 Norte 10 Sudeste 0 -- -- 74
2018-01-06 02:00:00 13 3 Nordeste 10 Este 0 -- -- 80
2018-01-06 01:00:00 13 3 Nordeste 15 Noroeste 0 -- -- 81
2018-01-06 00:00:00 12.5 6 Norte 12 Norte 0 -- -- 87
2018-01-05 23:00:00 11.2 5 Norte 8 Norte 0 -- -- 88
2018-01-05 22:00:00 12.1 5 Norte 14 Noroeste 0 -- -- 84
2018-01-05 21:00:00 12.6 5 Norte 13 Norte 0 -- -- 83
2018-01-05 20:00:00 12.8 4 Norte 15 Sur 0 -- -- 83
2018-01-05 19:00:00 14.2 4 Noroeste 19 Oeste 0 -- -- 81
2018-01-05 18:00:00 15.6 9 Oeste 34 Oeste 0 -- -- 76
2018-01-05 17:00:00 16.3 16 Oeste 35 Oeste 0 -- -- 75
2018-01-05 16:00:00 16.8 21 Sudoeste 35 Sudoeste 0 -- -- 70
2018-01-05 15:00:00 17.2 21 Sudoeste 35 Sudoeste 0 -- -- 66
2018-01-05 14:00:00 20.3 17 Noroeste 38 Noroeste 0 -- -- 44
2018-01-05 13:00:00 19.8 18 Noroeste 37 Noroeste 0 -- -- 46
2018-01-05 12:00:00 19.3 24 Noroeste 36 Noroeste 0 -- -- 45
2018-01-05 11:00:00 18 15 Oeste 33 Noroeste 0 -- -- 48
2018-01-05 10:00:00 16.2 16 Noroeste 30 Noroeste 0 -- -- 52
2018-01-05 09:00:00 10.3 10 Noroeste 24 Noroeste 0 -- -- 76
2018-01-05 08:00:00 9.7 4 Norte 17 Norte 0 -- -- 76
2018-01-05 07:00:00 8.4 4 Norte 8 Norte 0 -- -- 88
2018-01-05 06:00:00 8.9 3 Norte 8 Norte 0 -- -- 82
2018-01-05 05:00:00 9.4 3 Norte 9 Norte 0 -- -- 76
2018-01-05 04:00:00 9.9 5 Norte 10 Este 0 -- -- 79
2018-01-05 03:00:00 10.2 3 Nordeste 7 Nordeste 0 -- -- 78
2018-01-05 02:00:00 11.1 2 Sudeste 11 Norte 0 -- -- 73
2018-01-05 01:00:00 13.8 0 Calma 20 Norte 0 -- -- 66
2018-01-05 00:00:00 15.4 11 Norte 25 Noroeste 0 -- -- 63
2018-01-04 23:00:00 16 8 Norte 28 Noroeste 0 -- -- 61
2018-01-04 22:00:00 14.5 5 Norte 12 Norte 0 -- -- 63
2018-01-04 21:00:00 14.8 5 Norte 13 Nordeste 0 -- -- 64
2018-01-04 20:00:00 13.5 2 Este 9 Norte 0 -- -- 79
2018-01-04 19:00:00 15 0 Calma 7 Nordeste 0 -- -- 80
2018-01-04 18:00:00 18.1 2 Norte 8 Sudoeste 0 -- -- 70
2018-01-04 17:00:00 19.4 2 Sudeste 10 Sudoeste 0 -- -- 66
2018-01-04 16:00:00 18.4 5 Sur 22 Sudoeste 0 -- -- 68
2018-01-04 15:00:00 20.3 8 Sudoeste 14 Sudoeste 0 -- -- 60
2018-01-04 14:00:00 19.5 4 Sudoeste 10 Sudoeste 0 -- -- 62
2018-01-04 13:00:00 19 5 Sudoeste 10 Sur 0 -- -- 59
2018-01-04 12:00:00 18.3 4 Sudoeste 14 Sudoeste 0 -- -- 58
2018-01-04 11:00:00 17 7 Sudoeste 12 Sudoeste 0 -- -- 64
2018-01-04 10:00:00 12.5 2 Norte 5 Norte 0 -- -- 84
2018-01-04 09:00:00 9.4 3 Nordeste 7 Este 0 -- -- 87
2018-01-04 08:00:00 9.3 2 Norte 7 Norte 0 -- -- 86
2018-01-04 07:00:00 9.4 2 Norte 6 Norte 0 -- -- 84
2018-01-04 06:00:00 9.6 0 Calma 4 Norte 0 -- -- 84
2018-01-04 05:00:00 10.5 2 Sur 7 Sur 0 -- -- 79
2018-01-04 04:00:00 10.2 4 Norte 9 Nordeste 0 -- -- 82
2018-01-04 03:00:00 10.1 2 Norte 6 Norte 0 -- -- 83
2018-01-04 02:00:00 10.7 2 Este 9 Norte 0 -- -- 81
2018-01-04 01:00:00 11 7 Norte 10 Norte 0 -- -- 81
2018-01-04 00:00:00 10.8 6 Norte 8 Norte 0 -- -- 82
2018-01-03 23:00:00 10.9 0 Calma 6 Nordeste 0 -- -- 82
2018-01-03 22:00:00 11.9 3 Sudeste 8 Nordeste 0 -- -- 80
2018-01-03 21:00:00 11.6 2 Nordeste 7 Nordeste 0 -- -- 81
2018-01-03 20:00:00 12.6 3 Norte 6 Norte 0 -- -- 78
2018-01-03 19:00:00 14.4 0 Calma 7 Este 0 -- -- 71
2018-01-03 18:00:00 17.2 5 Sudeste 12 Sur 0 -- -- 59
2018-01-03 17:00:00 19.3 7 Sur 16 Sudoeste 0 -- -- 60
2018-01-03 16:00:00 21.3 8 Sur 12 Sur 0 -- -- 44
2018-01-03 15:00:00 20.9 8 Sur 12 Sudoeste 0 -- -- 45
2018-01-03 14:00:00 19.9 4 Sudoeste 10 Sudoeste 0 -- -- 54
2018-01-03 13:00:00 19 6 Sudoeste 15 Sur 0 -- -- 61
2018-01-03 12:00:00 20.1 7 Sur 16 Sudeste 0 -- -- 53
2018-01-03 11:00:00 18.2 6 Sudeste 11 Sudeste 0 -- -- 56
2018-01-03 10:00:00 13.7 3 Sur 6 Norte 0 -- -- 72
2018-01-03 09:00:00 9.9 2 Norte 5 Nordeste 0 -- -- 81
2018-01-03 08:00:00 9.7 5 Norte 7 Norte 0 -- -- 80
2018-01-03 07:00:00 10.4 0 Calma 7 Norte 0 -- -- 77
2018-01-03 06:00:00 10.3 3 Norte 6 Norte 0 -- -- 77
2018-01-03 05:00:00 10.3 0 Calma 5 Nordeste 0 -- -- 76
2018-01-03 04:00:00 11.1 0 Calma 8 Norte 0 -- -- 71
2018-01-03 03:00:00 11.9 2 Nordeste 8 Norte 0 -- -- 68
2018-01-03 02:00:00 11.9 5 Norte 9 Norte 0 -- -- 68
2018-01-03 01:00:00 12.8 3 Norte 12 Norte 0 -- -- 65
2018-01-03 00:00:00 12.3 4 Nordeste 10 Norte 0 -- -- 70
2018-01-02 23:00:00 13.3 5 Nordeste 10 Este 0 -- -- 68
2018-01-02 22:00:00 13.5 4 Nordeste 10 Norte 0 -- -- 66
2018-01-02 21:00:00 15.6 4 Nordeste 26 Sudeste 0 -- -- 60
2018-01-02 20:00:00 18.3 13 Sudeste 26 Sur 0 -- -- 47
2018-01-02 19:00:00 20.4 9 Sudeste 29 Norte 0 -- -- 39
2018-01-02 18:00:00 23.2 8 Noroeste 28 Nordeste 0 -- -- 31
2018-01-02 17:00:00 22.6 9 Noroeste 37 Noroeste 0 -- -- 31
2018-01-02 16:00:00 23.8 26 Noroeste 41 Noroeste 0 -- -- 24
2018-01-02 15:00:00 24.1 23 Noroeste 36 Noroeste 0 -- -- 25
2018-01-02 14:00:00 21.9 7 Norte 20 Sudoeste 0 -- -- 29
2018-01-02 13:00:00 20.6 8 Sur 16 Sudeste 0 -- -- 47
2018-01-02 12:00:00 21 7 Sudoeste 15 Oeste 0 -- -- 36
2018-01-02 11:00:00 17 4 Sur 11 Sur 0 -- -- 52
2018-01-02 10:00:00 11.8 3 Norte 10 Norte 0 -- -- 57
2018-01-02 09:00:00 8.6 4 Nordeste 9 Nordeste 0 -- -- 66
2018-01-02 08:00:00 9.5 3 Norte 15 Norte 0 -- -- 57
2018-01-02 07:00:00 9.8 5 Norte 14 Este 0 -- -- 51
2018-01-02 06:00:00 9.4 4 Norte 14 Norte 0 -- -- 56
2018-01-02 05:00:00 11.1 2 Nordeste 13 Oeste 0 -- -- 53
2018-01-02 04:00:00 13.6 2 Sudeste 21 Norte 0 -- -- 46
2018-01-02 03:00:00 12.9 5 Nordeste 13 Norte 0 -- -- 48
2018-01-02 02:00:00 12.8 3 Nordeste 15 Norte 0 -- -- 47
2018-01-02 01:00:00 12.8 6 Norte 15 Nordeste 0 -- -- 46
2018-01-02 00:00:00 14.3 10 Nordeste 19 Norte 0 -- -- 38
2018-01-01 23:00:00 11.4 5 Norte 11 Norte 0 -- -- 42
2018-01-01 22:00:00 12.5 4 Norte 11 Norte 0 -- -- 39
2018-01-01 21:00:00 13 4 Norte 15 Nordeste 0 -- -- 40
2018-01-01 20:00:00 13.4 7 Norte 14 Norte 0 -- -- 42
2018-01-01 19:00:00 12.9 5 Norte 11 Norte 0 -- -- 55
2018-01-01 18:00:00 17.2 6 Este 9 Este 0 -- -- 45
2018-01-01 17:00:00 17.6 5 Oeste 13 Oeste 0 -- -- 47
2018-01-01 16:00:00 18.4 6 Sudoeste 12 Sudoeste 0 -- -- 47
2018-01-01 15:00:00 18.1 5 Sudoeste 14 Sudoeste 0 -- -- 50
2018-01-01 14:00:00 19.2 7 Sudoeste 12 Sudoeste 0 -- -- 37
2018-01-01 13:00:00 18.8 5 Sudoeste 9 Sudoeste 0 -- -- 33
2018-01-01 12:00:00 18.4 8 Sur 16 Sudoeste 0 -- -- 48
2018-01-01 11:00:00 18.2 4 Norte 14 Norte 0 -- -- 31
2018-01-01 10:00:00 13 8 Norte 14 Norte 0 -- -- 41
2018-01-01 09:00:00 8.9 7 Norte 10 Norte 0 -- -- 54
2018-01-01 08:00:00 7.3 4 Norte 7 Norte 0 -- -- 60
2018-01-01 07:00:00 7.9 4 Nordeste 10 Norte 0 -- -- 60
2018-01-01 06:00:00 8.9 5 Nordeste 9 Norte 0 -- -- 57
2018-01-01 05:00:00 9.5 5 Nordeste 12 Norte 0 -- -- 57
2018-01-01 04:00:00 9.4 3 Nordeste 8 Norte 0 -- -- 58
2018-01-01 03:00:00 10.3 5 Norte 12 Norte 0 -- -- 57
2018-01-01 02:00:00 13 5 Norte 14 Oeste 0 -- -- 52
2018-01-01 01:00:00 16.3 10 Oeste 24 Oeste 0 -- -- 46
2018-01-01 00:00:00 16.4 12 Noroeste 26 Noroeste 0 -- -- 58
2017-12-31 23:00:00 16.7 14 Noroeste 24 Noroeste 0 -- -- 62
2017-12-31 22:00:00 16.8 12 Noroeste 25 Noroeste 0 -- -- 63
2017-12-31 21:00:00 16.8 9 Oeste 27 Oeste 0 -- -- 62
2017-12-31 20:00:00 16.8 17 Noroeste 42 Noroeste 0 -- -- 61
2017-12-31 19:00:00 17.3 24 Noroeste 41 Noroeste 0 -- -- 56
2017-12-31 18:00:00 17.7 26 Noroeste 44 Noroeste 0 -- -- 53
2017-12-31 17:00:00 18 24 Noroeste 54 Noroeste 0 -- -- 50
2017-12-31 16:00:00 18.9 32 Norte 51 Norte 0 -- -- 51
2017-12-31 15:00:00 20.7 30 Noroeste 47 Noroeste 0 -- -- 48
2017-12-31 14:00:00 18.5 5 Noroeste 22 Sudoeste 0 -- -- 68
2017-12-31 13:00:00 16.5 10 Sudoeste 14 Sudoeste 0 -- -- 72
2017-12-31 12:00:00 15.9 4 Norte 9 Sudoeste 0 -- -- 67
2017-12-31 11:00:00 15.1 0 Calma 11 Norte 0 -- -- 71
2017-12-31 10:00:00 12.3 3 Norte 9 Sudoeste 0 -- -- 77
2017-12-31 09:00:00 11 5 Norte 8 Nordeste 0 -- -- 79
2017-12-31 08:00:00 10.3 3 Norte 9 Norte 0 -- -- 79
2017-12-31 07:00:00 10.6 3 Este 11 Norte 0 -- -- 80
2017-12-31 06:00:00 11 6 Norte 10 Norte 0 -- -- 75
2017-12-31 05:00:00 11 3 Norte 10 Norte 0 -- -- 74
2017-12-31 04:00:00 10 5 Norte 13 Noroeste 0 -- -- 86
2017-12-31 03:00:00 9.3 0 Calma 5 Norte 0 -- -- 92
2017-12-31 02:00:00 9.4 3 Norte 5 Norte 0 -- -- 90
2017-12-31 01:00:00 9.7 4 Norte 6 Norte 0 -- -- 92